North Branford, CT

6:31 PM EST on March 05, 2015 (GMT -0500)
Meriden Markham Municipal | Change Station
CLOSE
Current Station
Airport
Location: Meriden,
Elevation: 102 ft
Nearby Weather Stations

Elev 102 ft 41.51 °N, 72.83 °W | Updated 38 minutes ago

Snow
Snow
23 °F
Feels Like 12 °F
N
10
Wind Variable Wind from NW

Today
High -- | Low -- °F
--% Chance of Precip.
Yesterday
High -- | Low -- °F
Precip. -- in
6:19 AM 5:46 PM
Full, 100% visible
Pressure 30.18 in
Visibility 10.0 miles
Clouds Overcast 6500 ft
Windchill 12 °F
Dew Point 7 °F
Humidity 50%
Rainfall 0.00 in
Snow Depth Not available.
UV 0 out of 12
Pollen .50 out of 12
Air Quality Not available.
Flu Activity Not available.
METAR KMMK 052253Z AUTO 32009KT 10SM OVC065 M05/M14 A3017 RMK AO2 SLP219 T10501139 TSNO

More Conditions Fewer Conditions

Pressure 30.18 in
Visibility 10.0 miles
Clouds Overcast 6500 ft
Windchill 12 °F
Dew Point 7 °F
Humidity 50%
Rainfall 0.00 in
Snow Depth Not available.
UV 0 out of 12
Pollen .50 out of 12
Air Quality Not available.
Flu Activity Not available.
METAR KMMK 052253Z AUTO 32009KT 10SM OVC065 M05/M14 A3017 RMK AO2 SLP219 T10501139 TSNO

More Conditions Fewer Conditions

10-Day Weather Forecast

Almanac

Astronomy

Mar. 05, 2015 Rise Set
Actual Time
Civil Twilight
Nautical Twilight
Astronomical Twilight
Moon
Length of Visible Light
Length of Day
Tomorrow will be .
, % of the Moon is Illuminated

Today's Extremes

State Highs State Lows

Community

WunderPhotos

Upload Photos

1,803,057 photos uploaded!

WunderBlogs® & News

Nearby

Air Quality

  Air Quality AQ Index Pollutant
Not available.

Snow Depth

Station Depth Elevation

Earthquake Activity

City Distance Mag. Time & Date
Minimum magnitude displayed is 2.5.

Coastal Water Temperatures

Place Temperature

Nearby Weather Stations

Winter Weather Advisory
Statement as of 3:40 PM EST on March 05, 2015

... Winter Weather Advisory remains in effect until 7 PM EST this
evening...

* locations... interior portions of northeast New Jersey...
Rockland and Westchester counties in New York... and most of southern
Connecticut.

* Hazard types... snow.

* Accumulations... less than 1 inch of additional snow is forecast.
Storm total accumulations ranged from 3 to 6 inches.

* Timing... light snow will end by 7 PM.

* Temperatures... near 20 until 7 PM.

* Impacts... hazardous travel conditions due to falling snow...
temperatures and Road icing.

Precautionary/preparedness actions...

A Winter Weather Advisory means that periods of snow... sleet... or
freezing rain will cause travel difficulties. Be prepared for
slippery roads and limited visibilities... and use caution while
driving.